Time;durP1;ratioP1;P1;durP2;ratioP2;P2;SDS_P1;SDS_P2;PMS_P1;PMS_P2;Temp;Humidity;BMP_temperature;BMP_pressure;BME280_temperature;BME280_humidity;BME280_pressure;Samples;Min_cycle;Max_cycle;Signal;HPM_P1;HPM_P2
2022/08/16 00:00:28;;;;;;;26.88;24.02;;;19.40;99.90;;;;;;5089994;28;20031;-46
2022/08/16 00:02:54;;;;;;;35.40;23.55;;;19.30;99.90;;;;;;5092281;28;20024;-47
2022/08/16 00:05:22;;;;;;;32.28;25.75;;;19.40;99.90;;;;;;5091360;28;20027;-46
2022/08/16 00:07:48;;;;;;;33.28;23.98;;;19.40;99.90;;;;;;5093507;28;20493;-47
2022/08/16 00:10:16;;;;;;;28.35;23.10;;;19.30;99.90;;;;;;5093672;28;20455;-46
2022/08/16 00:12:42;;;;;;;32.60;22.85;;;19.30;99.90;;;;;;5084536;28;20544;-46
2022/08/16 00:15:15;;;;;;;35.05;23.38;;;19.30;99.90;;;;;;5089682;28;20034;-46
2022/08/16 00:17:41;;;;;;;26.60;23.08;;;19.30;99.90;;;;;;5092069;28;20058;-47
2022/08/16 00:20:08;;;;;;;26.48;23.08;;;19.30;99.90;;;;;;5093859;28;20502;-47
2022/08/16 00:22:35;;;;;;;28.58;23.67;;;19.30;99.90;;;;;;5093070;28;20034;-47
2022/08/16 00:25:01;;;;;;;29.42;22.63;;;19.30;99.90;;;;;;5093727;28;20020;-46
2022/08/16 00:27:26;;;;;;;27.92;21.13;;;19.30;99.90;;;;;;5093382;28;20028;-47
2022/08/16 00:29:53;;;;;;;26.13;21.75;;;19.30;99.90;;;;;;5093606;28;20032;-46
2022/08/16 00:32:19;;;;;;;33.45;21.42;;;19.30;99.90;;;;;;5089426;28;20024;-50
2022/08/16 00:34:45;;;;;;;26.40;20.60;;;19.40;99.90;;;;;;5086134;28;20509;-48
2022/08/16 00:37:11;;;;;;;32.17;21.25;;;19.30;99.90;;;;;;5093422;28;20031;-47
2022/08/16 00:39:37;;;;;;;26.42;21.13;;;19.30;99.90;;;;;;5082430;28;20590;-49
2022/08/16 00:42:02;;;;;;;28.67;23.35;;;19.30;99.90;;;;;;5087968;28;20115;-47
2022/08/16 00:44:28;;;;;;;28.23;22.15;;;19.20;99.90;;;;;;5093118;28;20047;-49
2022/08/16 00:47:04;;;;;;;27.52;22.77;;;19.30;99.90;;;;;;5082602;28;20046;-47
2022/08/16 00:49:30;;;;;;;29.20;21.77;;;19.20;99.90;;;;;;5092260;28;20027;-49
2022/08/16 00:51:56;;;;;;;30.05;22.23;;;19.10;99.90;;;;;;5092259;28;20036;-47
2022/08/16 00:54:25;;;;;;;28.77;22.52;;;19.20;99.90;;;;;;5093002;28;20027;-47
2022/08/16 00:56:51;;;;;;;28.38;21.33;;;19.20;99.90;;;;;;5093074;28;20025;-46
2022/08/16 00:59:19;;;;;;;25.08;21.42;;;19.20;99.90;;;;;;5092896;28;20027;-47
2022/08/16 01:01:45;;;;;;;24.65;21.27;;;19.20;99.90;;;;;;5088157;28;20120;-46
2022/08/16 01:04:12;;;;;;;26.00;21.50;;;19.20;99.90;;;;;;5084310;28;20043;-45
2022/08/16 01:06:38;;;;;;;25.80;20.70;;;19.20;99.90;;;;;;5092680;28;20750;-47
2022/08/16 01:09:06;;;;;;;24.40;20.88;;;19.20;99.90;;;;;;5092729;28;20029;-46
2022/08/16 01:11:34;;;;;;;26.25;20.35;;;19.20;99.90;;;;;;5090886;28;20022;-49
2022/08/16 01:14:09;;;;;;;29.25;21.27;;;19.20;99.90;;;;;;5092667;28;20036;-50
2022/08/16 01:16:35;;;;;;;23.00;20.35;;;19.20;99.90;;;;;;5092217;28;20034;-51
2022/08/16 01:19:15;;;;;;;25.77;20.73;;;19.20;99.90;;;;;;5092518;28;20099;-49
2022/08/16 01:21:59;;;;;;;23.85;20.58;;;19.20;99.90;;;;;;5090633;28;20021;-48
2022/08/16 01:24:37;;;;;;;28.85;21.73;;;19.20;99.90;;;;;;5091175;28;20043;-49
2022/08/16 01:27:25;;;;;;;25.48;21.15;;;19.20;99.90;;;;;;5092562;28;20028;-47
2022/08/16 01:30:01;;;;;;;28.58;21.92;;;19.20;99.90;;;;;;5091930;28;20110;-47
2022/08/16 01:32:29;;;;;;;26.85;20.75;;;19.20;99.90;;;;;;5080059;28;20036;-49
2022/08/16 01:34:55;;;;;;;24.75;20.40;;;19.20;99.90;;;;;;5083676;28;20115;-50
2022/08/16 01:37:21;;;;;;;25.90;20.77;;;19.20;99.90;;;;;;5092077;28;20150;-46
2022/08/16 01:39:46;;;;;;;29.20;20.90;;;19.20;99.90;;;;;;5092061;28;20028;-50
2022/08/16 01:42:12;;;;;;;26.85;22.40;;;19.20;99.90;;;;;;5091514;28;20023;-48
2022/08/16 01:44:38;;;;;;;24.33;20.58;;;19.20;99.90;;;;;;5092115;28;20546;-46
2022/08/16 01:47:05;;;;;;;24.40;20.08;;;19.10;99.90;;;;;;5091758;28;20024;-46
2022/08/16 01:49:38;;;;;;;25.23;20.50;;;19.10;99.90;;;;;;5089873;28;20024;-47
2022/08/16 01:52:16;;;;;;;25.52;20.42;;;19.10;99.90;;;;;;5082565;28;20024;-46
2022/08/16 01:54:42;;;;;;;26.38;19.60;;;19.10;99.90;;;;;;5091695;28;20028;-46
2022/08/16 01:57:08;;;;;;;25.00;20.15;;;19.10;99.90;;;;;;5090536;28;20023;-49
2022/08/16 01:59:51;;;;;;;26.23;20.27;;;19.00;99.90;;;;;;5091785;28;20043;-48
2022/08/16 02:02:17;;;;;;;28.83;20.95;;;19.00;99.90;;;;;;5091064;28;20479;-48
2022/08/16 02:04:42;;;;;;;27.65;20.48;;;19.00;99.90;;;;;;5091655;28;20035;-47
2022/08/16 02:07:09;;;;;;;26.38;19.70;;;18.90;99.90;;;;;;5091513;28;20519;-47
2022/08/16 02:09:36;;;;;;;24.42;20.65;;;19.00;99.90;;;;;;5091570;28;20035;-48
2022/08/16 02:12:05;;;;;;;26.52;19.77;;;18.90;99.90;;;;;;5090924;28;20024;-49
2022/08/16 02:14:32;;;;;;;30.27;22.05;;;18.90;99.90;;;;;;5091561;28;20024;-48
2022/08/16 02:17:00;;;;;;;24.38;19.75;;;19.00;99.90;;;;;;5091060;28;20032;-48
2022/08/16 02:19:28;;;;;;;22.63;19.67;;;19.00;99.90;;;;;;5090362;28;20083;-49
2022/08/16 02:21:55;;;;;;;27.30;18.73;;;19.00;99.90;;;;;;5080853;28;20059;-48
2022/08/16 02:24:21;;;;;;;25.23;19.58;;;19.00;99.90;;;;;;5091052;28;20469;-47
2022/08/16 02:26:48;;;;;;;26.88;20.25;;;19.00;99.90;;;;;;5089895;28;20024;-49
2022/08/16 02:29:17;;;;;;;24.42;20.02;;;18.90;99.90;;;;;;5091067;28;20016;-48
2022/08/16 02:31:43;;;;;;;22.20;19.23;;;18.90;99.90;;;;;;5085599;28;20020;-46
2022/08/16 02:34:09;;;;;;;25.63;19.45;;;18.90;99.90;;;;;;5078749;28;20029;-46
2022/08/16 02:36:34;;;;;;;24.30;18.45;;;18.90;99.90;;;;;;5090737;28;20027;-47
2022/08/16 02:39:01;;;;;;;22.48;18.42;;;19.00;99.90;;;;;;5081896;28;20032;-47
2022/08/16 02:41:26;;;;;;;24.27;17.42;;;19.00;99.90;;;;;;5081861;28;20043;-47
2022/08/16 02:43:52;;;;;;;23.85;17.95;;;19.00;99.90;;;;;;5090977;28;20024;-47
2022/08/16 02:46:17;;;;;;;24.00;18.85;;;19.00;99.90;;;;;;5090862;28;20032;-47
2022/08/16 02:48:43;;;;;;;19.88;16.77;;;19.10;99.90;;;;;;5090454;28;20116;-46
2022/08/16 02:51:09;;;;;;;19.48;16.88;;;19.00;99.90;;;;;;5087876;28;20024;-46
2022/08/16 02:53:37;;;;;;;22.02;17.05;;;19.10;99.90;;;;;;5077985;28;20078;-47
2022/08/16 02:56:04;;;;;;;21.42;17.25;;;19.10;99.90;;;;;;5084650;28;20360;-48
2022/08/16 02:58:31;;;;;;;22.67;17.75;;;19.00;99.90;;;;;;5089374;28;20081;-47
2022/08/16 03:00:57;;;;;;;22.35;16.70;;;19.10;99.90;;;;;;5089044;28;20020;-48
2022/08/16 03:03:23;;;;;;;25.35;17.95;;;19.00;99.90;;;;;;5089249;28;20026;-47
2022/08/16 03:05:50;;;;;;;20.38;17.33;;;19.00;99.90;;;;;;5088232;28;20107;-46
2022/08/16 03:08:16;;;;;;;22.45;16.33;;;19.00;99.90;;;;;;5089475;28;20070;-47
2022/08/16 03:10:42;;;;;;;28.13;17.42;;;19.00;99.90;;;;;;5087552;28;20036;-46
2022/08/16 03:13:08;;;;;;;16.92;15.10;;;19.00;99.90;;;;;;5089108;28;20067;-47
2022/08/16 03:15:34;;;;;;;21.73;17.58;;;19.00;99.90;;;;;;5089205;28;20442;-46
2022/08/16 03:18:00;;;;;;;23.50;16.80;;;19.00;99.90;;;;;;5089522;28;20495;-46
2022/08/16 03:20:26;;;;;;;19.25;15.32;;;18.90;99.90;;;;;;5090281;28;20047;-48
2022/08/16 03:22:52;;;;;;;19.17;16.30;;;18.90;99.90;;;;;;5083448;28;20051;-47
2022/08/16 03:25:17;;;;;;;23.25;16.35;;;18.90;99.90;;;;;;5081800;28;20060;-46
2022/08/16 03:27:43;;;;;;;24.85;16.60;;;18.90;99.90;;;;;;5090257;28;20028;-46
2022/08/16 03:30:13;;;;;;;16.58;14.15;;;18.90;99.90;;;;;;5088995;28;20031;-46
2022/08/16 03:32:39;;;;;;;;;;;18.80;99.90;;;;;;5084213;28;20036;-46
2022/08/16 03:35:06;;;;;;;20.40;16.88;;;18.90;99.90;;;;;;5081102;28;19918;-46
2022/08/16 03:37:33;;;;;;;26.00;18.23;;;18.80;99.90;;;;;;5090119;28;20123;-47
2022/08/16 03:39:58;;;;;;;20.48;16.35;;;18.80;99.90;;;;;;5085837;28;20020;-46
2022/08/16 03:42:24;;;;;;;19.10;15.93;;;18.80;99.90;;;;;;5079048;28;20044;-46
2022/08/16 03:44:49;;;;;;;19.20;16.83;;;18.80;99.90;;;;;;5090123;28;20521;-47
2022/08/16 03:47:16;;;;;;;21.20;16.27;;;18.80;99.90;;;;;;5088620;28;20055;-46
2022/08/16 03:49:41;;;;;;;22.52;17.20;;;18.70;99.90;;;;;;5089786;28;20031;-46
2022/08/16 03:52:07;;;;;;;21.35;16.48;;;18.80;99.90;;;;;;5089373;28;20035;-46
2022/08/16 03:54:33;;;;;;;22.83;16.50;;;18.80;99.90;;;;;;5090000;28;20024;-48
2022/08/16 03:56:58;;;;;;;23.08;16.92;;;18.80;99.90;;;;;;5082443;28;20024;-46
2022/08/16 03:59:24;;;;;;;24.95;16.70;;;18.70;99.90;;;;;;5081642;28;20024;-47
2022/08/16 04:01:49;;;;;;;21.15;17.05;;;18.70;99.90;;;;;;5089469;28;20017;-45
2022/08/16 04:04:15;;;;;;;20.55;16.80;;;18.70;99.90;;;;;;5089870;28;20428;-49
2022/08/16 04:06:40;;;;;;;25.75;18.65;;;18.70;99.90;;;;;;5090085;28;20039;-46
2022/08/16 04:09:06;;;;;;;19.52;16.80;;;18.70;99.90;;;;;;5090144;28;20030;-47
2022/08/16 04:11:31;;;;;;;22.42;17.63;;;18.70;99.90;;;;;;5089126;28;20077;-46
2022/08/16 04:13:57;;;;;;;25.67;17.70;;;18.80;99.90;;;;;;5089848;28;20025;-48
2022/08/16 04:16:22;;;;;;;19.63;16.20;;;18.80;99.90;;;;;;5089603;28;20471;-47
2022/08/16 04:18:48;;;;;;;24.08;16.60;;;18.80;99.90;;;;;;5089770;28;20032;-46
2022/08/16 04:21:13;;;;;;;20.45;17.23;;;18.80;99.90;;;;;;5089177;28;20021;-46
2022/08/16 04:23:40;;;;;;;17.92;14.65;;;18.80;99.90;;;;;;5089714;28;20020;-46
2022/08/16 04:26:06;;;;;;;18.25;15.75;;;18.80;99.90;;;;;;5084994;28;20055;-46
2022/08/16 04:28:32;;;;;;;19.40;16.05;;;18.80;99.90;;;;;;5080499;28;20060;-47
2022/08/16 04:30:58;;;;;;;18.63;16.42;;;18.80;99.90;;;;;;5089023;28;20038;-47
2022/08/16 04:33:24;;;;;;;23.50;16.92;;;18.80;99.90;;;;;;5083181;28;20103;-46
2022/08/16 04:35:50;;;;;;;19.98;15.77;;;18.80;99.90;;;;;;5083137;28;20487;-47
2022/08/16 04:38:16;;;;;;;21.55;16.13;;;18.80;99.90;;;;;;5089123;28;20024;-46
2022/08/16 04:40:42;;;;;;;23.38;15.70;;;18.80;99.90;;;;;;5088228;28;20027;-48
2022/08/16 04:43:07;;;;;;;17.60;15.45;;;18.80;99.90;;;;;;5089032;28;20020;-47
2022/08/16 04:45:32;;;;;;;18.25;13.82;;;18.90;99.90;;;;;;5086267;28;20035;-45
2022/08/16 04:47:58;;;;;;;17.10;14.07;;;18.90;99.90;;;;;;5078894;28;20416;-46
2022/08/16 04:50:26;;;;;;;23.90;14.20;;;18.90;99.90;;;;;;5090970;28;20047;-46
2022/08/16 04:52:53;;;;;;;22.17;16.08;;;18.90;99.90;;;;;;5092464;28;20027;-46
2022/08/16 04:55:22;;;;;;;18.45;14.13;;;18.90;99.90;;;;;;5092995;28;20020;-46
2022/08/16 04:57:50;;;;;;;19.38;15.75;;;18.90;99.90;;;;;;5092901;28;20048;-46
2022/08/16 05:00:19;;;;;;;17.83;13.75;;;19.00;99.90;;;;;;5092890;28;20488;-47
2022/08/16 05:02:47;;;;;;;19.63;14.02;;;19.00;99.90;;;;;;5092035;28;20027;-47
2022/08/16 05:05:13;;;;;;;21.30;13.98;;;19.00;99.90;;;;;;5092826;28;20028;-46
2022/08/16 05:07:39;;;;;;;21.70;15.35;;;19.10;99.90;;;;;;5092847;28;20024;-48
2022/08/16 05:10:07;;;;;;;16.30;12.27;;;19.10;99.90;;;;;;5092625;28;20031;-49
2022/08/16 05:12:32;;;;;;;18.98;15.48;;;19.10;99.90;;;;;;5092189;28;20066;-50
2022/08/16 05:14:58;;;;;;;16.38;14.00;;;19.10;99.90;;;;;;5065212;28;20559;-50
2022/08/16 05:17:24;;;;;;;21.63;15.32;;;19.10;99.90;;;;;;5063965;28;20070;-47
2022/08/16 05:19:50;;;;;;;20.25;14.30;;;19.10;99.90;;;;;;5077770;28;20048;-48
2022/08/16 05:22:15;;;;;;;19.95;15.25;;;19.10;99.90;;;;;;5069836;28;20086;-48
2022/08/16 05:24:41;;;;;;;23.33;14.63;;;19.10;99.90;;;;;;5070746;28;20089;-46
2022/08/16 05:27:07;;;;;;;20.45;14.13;;;19.10;99.90;;;;;;5070294;28;20033;-46
2022/08/16 05:29:33;;;;;;;19.60;14.77;;;19.20;99.90;;;;;;5071710;28;20055;-46
2022/08/16 05:32:00;;;;;;;21.58;13.30;;;19.10;99.90;;;;;;5068184;28;20626;-46
2022/08/16 05:34:26;;;;;;;16.20;12.68;;;19.20;99.90;;;;;;5077282;28;20012;-45
2022/08/16 05:36:55;;;;;;;16.42;12.85;;;19.20;99.90;;;;;;5085147;28;20075;-49
2022/08/16 05:39:22;;;;;;;21.42;12.75;;;19.30;99.90;;;;;;5069554;28;20056;-46
2022/08/16 05:41:47;;;;;;;19.08;14.23;;;19.30;99.90;;;;;;5068874;28;20096;-47
2022/08/16 05:44:14;;;;;;;19.25;13.23;;;19.40;99.90;;;;;;5069368;28;20448;-45
2022/08/16 05:46:41;;;;;;;16.23;12.65;;;19.40;99.90;;;;;;5066750;28;20032;-48
2022/08/16 05:49:07;;;;;;;16.27;11.45;;;19.40;99.90;;;;;;5066750;28;20016;-46
2022/08/16 05:51:32;;;;;;;12.50;11.15;;;19.50;99.90;;;;;;5069161;28;20368;-46
2022/08/16 05:53:58;;;;;;;15.15;11.50;;;19.60;99.90;;;;;;5068905;28;20060;-46
2022/08/16 05:56:23;;;;;;;17.20;11.20;;;19.60;99.90;;;;;;5068234;28;20132;-47
2022/08/16 05:58:49;;;;;;;16.52;11.57;;;19.70;99.90;;;;;;5068901;28;20028;-46
2022/08/16 06:01:14;;;;;;;16.50;11.25;;;19.70;99.90;;;;;;5069083;28;20244;-45
2022/08/16 06:03:40;;;;;;;17.58;12.02;;;19.80;99.90;;;;;;5067635;28;20033;-47
2022/08/16 06:06:05;;;;;;;15.15;11.15;;;19.80;99.90;;;;;;5067457;28;20531;-46
2022/08/16 06:08:31;;;;;;;14.93;10.95;;;19.90;99.90;;;;;;5080081;28;20028;-46
2022/08/16 06:10:56;;;;;;;18.83;11.45;;;19.90;99.90;;;;;;5068381;28;20064;-46
2022/08/16 06:13:22;;;;;;;18.13;11.00;;;19.90;99.90;;;;;;5068085;28;20028;-46
2022/08/16 06:15:50;;;;;;;15.10;10.48;;;20.00;99.90;;;;;;5058678;28;20037;-48
2022/08/16 06:18:17;;;;;;;16.70;10.85;;;20.00;99.90;;;;;;5046449;28;20112;-48
2022/08/16 06:20:42;;;;;;;16.65;10.85;;;20.10;99.90;;;;;;5048566;28;20032;-47
2022/08/16 06:23:08;;;;;;;11.60;10.23;;;20.20;99.90;;;;;;5047563;28;20025;-45
2022/08/16 06:25:33;;;;;;;13.00;10.15;;;20.20;99.90;;;;;;5049128;28;20028;-49
2022/08/16 06:27:59;;;;;;;14.90;10.82;;;20.30;99.90;;;;;;5048118;28;20021;-48
2022/08/16 06:30:24;;;;;;;13.05;10.55;;;20.40;99.90;;;;;;5050576;28;20036;-49
2022/08/16 06:32:50;;;;;;;15.93;10.23;;;20.40;99.90;;;;;;5060634;28;20028;-47
2022/08/16 06:35:16;;;;;;;13.60;10.57;;;20.50;99.90;;;;;;5082411;28;20047;-49
2022/08/16 06:37:41;;;;;;;12.50;10.23;;;20.50;99.90;;;;;;5089870;28;20043;-47
2022/08/16 06:40:09;;;;;;;12.55;10.52;;;20.60;99.90;;;;;;5080817;28;20028;-49
2022/08/16 06:42:34;;;;;;;12.90;10.45;;;20.60;99.90;;;;;;5089110;28;20024;-48
2022/08/16 06:45:00;;;;;;;13.02;9.90;;;20.60;99.90;;;;;;5090826;28;20035;-49
2022/08/16 06:47:25;;;;;;;14.38;9.85;;;20.70;99.90;;;;;;5091009;28;20432;-48
2022/08/16 06:49:51;;;;;;;19.35;9.82;;;20.80;99.90;;;;;;5090857;28;20016;-47
2022/08/16 06:52:17;;;;;;;11.55;9.40;;;20.90;99.90;;;;;;5088041;28;20058;-47
2022/08/16 06:54:42;;;;;;;13.25;10.52;;;20.90;99.90;;;;;;5080754;28;20062;-46
2022/08/16 06:57:09;;;;;;;17.15;10.00;;;21.00;99.90;;;;;;5090282;28;20491;-45
2022/08/16 06:59:36;;;;;;;10.23;9.23;;;21.00;99.90;;;;;;5089486;28;20051;-47
2022/08/16 07:02:02;;;;;;;18.92;9.52;;;21.10;99.90;;;;;;5088523;28;20024;-46
2022/08/16 07:04:28;;;;;;;12.80;9.48;;;21.20;99.90;;;;;;5089048;28;20030;-47
2022/08/16 07:06:53;;;;;;;13.40;10.23;;;21.20;99.90;;;;;;5088926;28;20028;-49
2022/08/16 07:09:19;;;;;;;12.32;9.05;;;21.30;99.90;;;;;;5088581;28;20548;-47
2022/08/16 07:11:44;;;;;;;9.05;8.10;;;21.40;99.90;;;;;;5088142;28;20150;-47
2022/08/16 07:14:11;;;;;;;19.70;10.10;;;21.50;99.90;;;;;;5089114;28;20024;-46
2022/08/16 07:16:36;;;;;;;17.88;10.38;;;21.60;99.90;;;;;;5088914;28;20357;-48
2022/08/16 07:19:02;;;;;;;12.32;8.25;;;21.70;99.90;;;;;;5088796;28;20108;-49
2022/08/16 07:21:28;;;;;;;9.10;7.97;;;21.80;99.90;;;;;;5087112;28;20074;-46
2022/08/16 07:23:53;;;;;;;14.40;8.63;;;21.80;99.90;;;;;;5081394;28;20502;-46
2022/08/16 07:26:22;;;;;;;11.63;8.45;;;21.90;99.90;;;;;;5086341;28;20036;-49
2022/08/16 07:28:48;;;;;;;11.18;8.23;;;22.00;99.90;;;;;;5087508;28;20058;-47
2022/08/16 07:31:14;;;;;;;11.30;8.38;;;22.10;99.90;;;;;;5088058;28;20479;-50
2022/08/16 07:33:41;;;;;;;9.65;7.80;;;22.30;99.90;;;;;;5080898;28;20028;-46
2022/08/16 07:36:08;;;;;;;10.85;8.27;;;22.30;99.90;;;;;;5080221;28;20402;-50
2022/08/16 07:38:34;;;;;;;9.45;7.97;;;22.40;99.90;;;;;;5089270;28;20139;-46
2022/08/16 07:41:01;;;;;;;12.05;8.10;;;22.50;99.90;;;;;;5087270;28;20095;-47
2022/08/16 07:43:27;;;;;;;10.20;7.68;;;22.60;99.90;;;;;;5088958;28;20467;-47
2022/08/16 07:45:53;;;;;;;10.35;7.85;;;22.70;99.90;;;;;;5088676;28;20028;-48
2022/08/16 07:48:19;;;;;;;12.52;8.27;;;22.80;99.90;;;;;;5088121;28;20193;-45
2022/08/16 07:50:45;;;;;;;9.65;7.80;;;22.90;99.90;;;;;;5087932;28;20266;-49
2022/08/16 07:53:11;;;;;;;12.18;8.73;;;23.10;99.90;;;;;;5088891;28;20047;-49
2022/08/16 07:55:37;;;;;;;14.05;8.20;;;23.20;99.90;;;;;;5088409;28;20032;-46
2022/08/16 07:58:03;;;;;;;11.20;7.85;;;23.30;99.90;;;;;;5087039;28;20031;-46
2022/08/16 08:00:30;;;;;;;8.68;7.32;;;23.40;99.90;;;;;;5088172;28;20031;-47
2022/08/16 08:02:55;;;;;;;9.55;7.25;;;23.70;99.90;;;;;;5083780;28;20032;-50
2022/08/16 08:05:22;;;;;;;9.80;7.35;;;23.80;99.90;;;;;;5078290;28;20380;-50
2022/08/16 08:07:49;;;;;;;7.75;6.90;;;24.00;99.90;;;;;;5088601;28;20107;-47
2022/08/16 08:10:14;;;;;;;10.90;6.88;;;24.20;99.90;;;;;;5088143;28;20036;-49
2022/08/16 08:12:42;;;;;;;9.20;7.15;;;24.50;99.90;;;;;;5087653;28;20092;-49
2022/08/16 08:15:10;;;;;;;7.80;5.93;;;24.80;99.90;;;;;;5088450;28;20035;-49
2022/08/16 08:17:38;;;;;;;7.65;6.22;;;25.40;99.90;;;;;;5088214;28;20557;-49
2022/08/16 08:20:05;;;;;;;7.68;6.00;;;26.30;99.90;;;;;;5087983;28;20103;-48
2022/08/16 08:22:31;;;;;;;7.60;5.72;;;27.70;99.40;;;;;;5089641;28;20036;-48
2022/08/16 08:24:57;;;;;;;8.73;4.95;;;28.80;93.30;;;;;;5092052;28;20043;-49
2022/08/16 08:27:23;;;;;;;4.50;4.10;;;29.70;92.50;;;;;;5092097;28;20062;-48
2022/08/16 08:29:48;;;;;;;5.43;4.65;;;30.50;90.30;;;;;;5092015;28;20017;-49
2022/08/16 08:32:14;;;;;;;7.30;4.70;;;31.60;88.00;;;;;;5091429;28;20035;-49
2022/08/16 08:34:40;;;;;;;4.90;4.50;;;32.30;80.60;;;;;;5080458;28;20046;-47
2022/08/16 08:37:06;;;;;;;6.38;4.18;;;32.40;77.90;;;;;;5087548;28;20049;-46
2022/08/16 08:39:33;;;;;;;7.43;4.57;;;33.70;74.20;;;;;;5091645;28;20480;-46
2022/08/16 08:41:58;;;;;;;4.60;4.00;;;33.80;71.90;;;;;;5091094;28;20025;-49
2022/08/16 08:44:24;;;;;;;8.90;4.15;;;34.00;72.20;;;;;;5089352;28;20035;-48
2022/08/16 08:46:50;;;;;;;4.57;3.60;;;35.00;68.20;;;;;;5079352;28;20128;-48
2022/08/16 08:49:15;;;;;;;4.03;3.38;;;34.70;65.90;;;;;;5088585;28;20506;-48
2022/08/16 08:51:41;;;;;;;6.53;3.83;;;35.10;70.00;;;;;;5091020;28;20016;-49
2022/08/16 08:54:13;;;;;;;8.82;4.00;;;35.60;64.30;;;;;;5091472;28;20022;-48
2022/08/16 08:56:40;;;;;;;5.72;3.92;;;35.60;61.70;;;;;;5091550;28;20028;-46
2022/08/16 08:59:06;;;;;;;3.78;3.35;;;36.20;60.00;;;;;;5091478;28;20111;-46
2022/08/16 09:01:34;;;;;;;5.90;3.70;;;36.80;60.30;;;;;;5090614;28;20597;-46
2022/08/16 09:04:02;;;;;;;9.10;4.10;;;36.70;60.40;;;;;;5091360;28;20063;-48
2022/08/16 09:06:27;;;;;;;3.90;3.58;;;37.30;58.90;;;;;;5091390;28;20232;-46
2022/08/16 09:08:53;;;;;;;7.22;5.43;;;37.60;57.90;;;;;;5091289;28;20098;-45
2022/08/16 09:11:18;;;;;;;5.10;4.10;;;36.60;55.10;;;;;;5090627;28;20020;-45
2022/08/16 09:13:44;;;;;;;3.70;3.40;;;37.10;53.60;;;;;;5091122;28;20489;-45
2022/08/16 09:16:10;;;;;;;3.25;2.95;;;36.80;55.00;;;;;;5084458;28;20123;-46
2022/08/16 09:18:35;;;;;;;4.85;3.65;;;37.30;56.10;;;;;;5082768;28;20548;-47
2022/08/16 09:21:01;;;;;;;4.65;3.45;;;37.20;54.40;;;;;;5090367;28;20027;-45
2022/08/16 09:23:29;;;;;;;6.20;3.47;;;38.00;54.40;;;;;;5091146;28;20099;-49
2022/08/16 09:25:55;;;;;;;3.92;3.55;;;38.20;52.60;;;;;;5091354;28;20304;-48
2022/08/16 09:28:21;;;;;;;8.25;3.63;;;38.20;53.40;;;;;;5090816;28;20062;-48
2022/08/16 09:30:46;;;;;;;6.25;3.22;;;37.40;52.40;;;;;;5089894;28;20047;-48
2022/08/16 09:33:17;;;;;;;3.95;3.00;;;37.30;54.20;;;;;;5083842;28;20028;-45
2022/08/16 09:35:43;;;;;;;5.35;3.42;;;37.60;55.70;;;;;;5082241;28;20391;-45
2022/08/16 09:38:11;;;;;;;10.02;3.42;;;36.80;54.10;;;;;;5091324;28;20024;-46
2022/08/16 09:40:37;;;;;;;5.40;3.38;;;37.20;53.60;;;;;;5090767;28;20089;-46
2022/08/16 09:43:03;;;;;;;4.70;3.03;;;39.00;52.30;;;;;;5090432;28;20075;-49
2022/08/16 09:45:29;;;;;;;3.60;2.85;;;39.10;49.10;;;;;;5090577;28;20485;-46
2022/08/16 09:47:55;;;;;;;5.05;2.47;;;38.50;51.30;;;;;;5090374;28;20644;-47
2022/08/16 09:50:22;;;;;;;7.47;2.92;;;38.30;52.20;;;;;;5089116;28;20020;-49
2022/08/16 09:52:47;;;;;;;6.18;3.03;;;38.80;52.10;;;;;;5089907;28;20028;-48
2022/08/16 09:55:13;;;;;;;3.60;3.10;;;39.00;47.70;;;;;;5090202;28;20032;-46
2022/08/16 09:57:40;;;;;;;4.30;2.85;;;39.60;48.40;;;;;;5090620;28;20463;-47
2022/08/16 10:00:09;;;;;;;4.35;3.10;;;40.00;47.00;;;;;;5090188;28;20050;-45
2022/08/16 10:02:35;;;;;;;6.13;3.30;;;38.50;47.70;;;;;;5089591;28;20016;-47
2022/08/16 10:05:01;;;;;;;4.60;2.60;;;38.80;49.80;;;;;;5078334;28;20036;-48
2022/08/16 10:07:28;;;;;;;4.13;3.50;;;39.00;48.40;;;;;;5089090;28;20081;-46
2022/08/16 10:09:53;;;;;;;5.72;3.03;;;38.10;48.90;;;;;;5089922;28;20084;-49
2022/08/16 10:15:04;;;;;;;3.35;3.08;;;38.60;50.00;;;;;;5090121;28;20030;-45
2022/08/16 10:17:30;;;;;;;8.13;3.20;;;37.40;49.30;;;;;;5089912;28;20127;-48
2022/08/16 10:19:55;;;;;;;4.15;2.95;;;37.30;51.20;;;;;;5089751;28;20597;-46
2022/08/16 10:22:21;;;;;;;4.50;2.97;;;39.30;50.10;;;;;;5089264;28;20028;-46
2022/08/16 10:24:47;;;;;;;4.72;3.22;;;39.60;49.10;;;;;;5089487;28;20286;-47
2022/08/16 10:27:12;;;;;;;4.03;2.90;;;39.70;49.00;;;;;;5089791;28;20429;-46
2022/08/16 10:29:39;;;;;;;5.38;3.15;;;38.50;45.50;;;;;;5089658;28;20190;-47
2022/08/16 10:32:04;;;;;;;5.60;3.05;;;36.80;49.40;;;;;;5088885;28;20020;-48
2022/08/16 10:34:30;;;;;;;3.70;3.00;;;37.50;49.90;;;;;;5078123;28;20652;-46
2022/08/16 10:36:56;;;;;;;5.05;2.60;;;38.10;49.70;;;;;;5083808;28;20024;-46
2022/08/16 10:39:22;;;;;;;4.80;2.83;;;38.70;49.50;;;;;;5089762;28;20032;-47
2022/08/16 10:41:47;;;;;;;3.67;2.80;;;38.40;49.60;;;;;;5088990;28;20039;-45
2022/08/16 10:44:13;;;;;;;4.00;2.78;;;38.10;46.90;;;;;;5087698;28;20415;-49
2022/08/16 10:46:40;;;;;;;3.05;2.75;;;38.30;48.70;;;;;;5089283;28;20516;-47
2022/08/16 10:49:05;;;;;;;6.07;2.88;;;37.80;46.60;;;;;;5089028;28;20198;-45
2022/08/16 10:51:31;;;;;;;3.63;3.10;;;38.10;47.90;;;;;;5081185;28;20020;-48
2022/08/16 10:53:57;;;;;;;3.22;2.83;;;37.40;47.60;;;;;;5083891;28;20119;-45
2022/08/16 10:56:24;;;;;;;4.75;3.22;;;36.90;50.00;;;;;;5087706;28;20024;-48
2022/08/16 10:58:50;;;;;;;4.30;3.13;;;36.90;50.00;;;;;;5089363;28;20027;-49
2022/08/16 11:01:16;;;;;;;4.03;2.90;;;37.40;49.10;;;;;;5088366;28;20541;-45
2022/08/16 11:03:42;;;;;;;3.67;2.55;;;37.20;49.80;;;;;;5083313;28;20028;-48
2022/08/16 11:06:08;;;;;;;5.05;3.10;;;38.20;49.90;;;;;;5085306;28;20031;-47
2022/08/16 11:08:36;;;;;;;3.92;2.90;;;38.60;48.60;;;;;;5089054;28;20024;-46
2022/08/16 11:11:05;;;;;;;4.18;3.05;;;38.20;47.20;;;;;;5088707;28;20024;-46
2022/08/16 11:13:30;;;;;;;4.22;3.13;;;38.40;48.90;;;;;;5088940;28;20032;-48
2022/08/16 11:15:57;;;;;;;7.00;3.67;;;38.00;49.60;;;;;;5088728;28;20085;-47
2022/08/16 11:18:23;;;;;;;4.47;2.65;;;38.30;47.00;;;;;;5088673;28;20031;-49
2022/08/16 11:20:49;;;;;;;4.28;3.35;;;37.90;45.70;;;;;;5088037;28;20020;-50
2022/08/16 11:23:15;;;;;;;7.68;3.30;;;38.80;46.50;;;;;;5089028;28;20091;-48
2022/08/16 11:25:41;;;;;;;4.30;3.25;;;38.30;47.70;;;;;;5088824;28;20032;-47
2022/08/16 11:28:08;;;;;;;4.00;2.90;;;38.30;47.80;;;;;;5088605;28;20058;-46
2022/08/16 11:30:35;;;;;;;3.95;2.90;;;38.70;47.80;;;;;;5088234;28;20028;-48
2022/08/16 11:33:01;;;;;;;3.33;3.03;;;39.70;47.30;;;;;;5086121;28;20024;-46
2022/08/16 11:35:29;;;;;;;8.05;3.30;;;40.10;46.10;;;;;;5078369;28;20036;-46
2022/08/16 11:38:09;;;;;;;3.22;2.70;;;39.80;45.20;;;;;;5088728;28;20495;-46
2022/08/16 11:40:45;;;;;;;4.13;3.03;;;39.40;46.00;;;;;;5077626;28;20021;-46
2022/08/16 11:43:13;;;;;;;6.55;3.38;;;38.20;48.90;;;;;;5085067;28;20119;-47
2022/08/16 11:45:38;;;;;;;4.03;3.05;;;37.60;47.00;;;;;;5087206;28;20032;-46
2022/08/16 11:48:06;;;;;;;4.38;3.00;;;36.70;47.60;;;;;;5080025;28;20036;-45
2022/08/16 11:50:33;;;;;;;4.25;3.47;;;35.50;50.80;;;;;;5079156;28;20047;-45
2022/08/16 11:53:00;;;;;;;5.35;3.70;;;35.90;52.60;;;;;;5088300;28;20436;-48
2022/08/16 11:55:26;;;;;;;4.90;3.50;;;35.80;51.90;;;;;;5067645;28;20024;-46
2022/08/16 11:57:51;;;;;;;6.60;3.85;;;34.90;53.00;;;;;;5083498;28;20070;-46
2022/08/16 12:00:17;;;;;;;4.07;3.63;;;34.70;52.40;;;;;;5092653;28;20027;-46
2022/08/16 12:02:42;;;;;;;6.63;3.15;;;34.40;51.80;;;;;;5090323;28;20027;-45
2022/08/16 12:05:11;;;;;;;5.68;2.97;;;34.70;51.60;;;;;;5084019;28;20024;-45
2022/08/16 12:07:38;;;;;;;4.38;2.95;;;35.30;51.40;;;;;;5076149;28;20031;-46
2022/08/16 12:10:09;;;;;;;3.85;3.10;;;35.70;50.80;;;;;;5092580;28;20093;-46
2022/08/16 12:12:34;;;;;;;7.30;2.80;;;36.20;52.50;;;;;;5091867;28;20020;-46
2022/08/16 12:15:00;;;;;;;5.63;3.20;;;36.80;50.20;;;;;;5092038;28;20028;-45
2022/08/16 12:17:27;;;;;;;4.72;3.30;;;36.40;49.60;;;;;;5092208;28;20039;-45
2022/08/16 12:19:53;;;;;;;4.38;3.20;;;35.50;51.50;;;;;;5091778;28;20071;-45
2022/08/16 12:22:18;;;;;;;4.75;3.30;;;35.10;51.10;;;;;;5085580;28;20496;-46
2022/08/16 12:24:49;;;;;;;4.70;3.20;;;35.10;51.40;;;;;;5085167;28;20017;-46
2022/08/16 12:27:15;;;;;;;4.32;3.85;;;34.90;55.30;;;;;;5092260;28;20574;-47
2022/08/16 12:29:41;;;;;;;3.47;3.13;;;34.70;52.80;;;;;;5086222;28;20040;-46
2022/08/16 12:32:06;;;;;;;4.45;3.22;;;34.90;52.90;;;;;;5085769;28;20544;-45
2022/08/16 12:34:32;;;;;;;5.55;3.08;;;34.80;51.80;;;;;;5082983;28;20027;-46